Time;durP1;ratioP1;P1;durP2;ratioP2;P2;SDS_P1;SDS_P2;PMS_P1;PMS_P2;Temp;Humidity;BMP_temperature;BMP_pressure;BME280_temperature;BME280_humidity;BME280_pressure;Samples;Min_cycle;Max_cycle;Signal;HPM_P1;HPM_P2
2021/05/24 00:00:31;;;;;;;5.63;5.13;;;10.60;85.80;;;;;;5055565;28;20250;-65
2021/05/24 00:02:57;;;;;;;8.90;5.70;;;10.40;90.90;;;;;;5055185;28;20441;-65
2021/05/24 00:05:32;;;;;;;6.80;6.13;;;10.40;99.90;;;;;;5054659;28;20426;-65
2021/05/24 00:07:58;;;;;;;9.55;5.93;;;10.40;99.90;;;;;;5054989;28;20523;-66
2021/05/24 00:10:26;;;;;;;6.60;5.90;;;10.30;99.90;;;;;;5055082;28;20185;-65
2021/05/24 00:12:54;;;;;;;6.80;5.97;;;10.30;99.90;;;;;;5055011;28;20482;-65
2021/05/24 00:15:27;;;;;;;6.13;5.60;;;10.30;99.90;;;;;;5054520;28;20260;-65
2021/05/24 00:17:54;;;;;;;7.90;5.50;;;10.30;99.90;;;;;;5054580;28;20275;-65
2021/05/24 00:20:27;;;;;;;9.18;5.65;;;10.30;99.90;;;;;;5054841;28;20550;-65
2021/05/24 00:22:53;;;;;;;6.88;5.85;;;10.40;99.90;;;;;;5055214;28;20192;-65
2021/05/24 00:25:19;;;;;;;6.07;5.00;;;10.40;99.90;;;;;;5054608;28;20177;-65
2021/05/24 00:27:45;;;;;;;6.18;5.40;;;10.50;99.90;;;;;;5054519;28;20208;-65
2021/05/24 00:30:12;;;;;;;6.97;4.93;;;10.50;99.90;;;;;;5054663;28;20234;-65
2021/05/24 00:32:38;;;;;;;8.57;5.68;;;10.60;99.90;;;;;;5054643;28;20180;-65
2021/05/24 00:35:04;;;;;;;5.73;5.20;;;10.90;99.90;;;;;;5053930;28;20196;-66
2021/05/24 00:37:30;;;;;;;5.57;5.07;;;10.90;67.60;;;;;;5054393;28;20427;-65
2021/05/24 00:39:55;;;;;;;6.30;5.33;;;11.00;54.50;;;;;;5054483;28;20263;-65
2021/05/24 00:42:21;;;;;;;6.13;5.53;;;10.90;19.90;;;;;;5036885;28;20196;-65
2021/05/24 00:44:47;;;;;;;7.70;5.40;;;11.00;19.80;;;;;;5036575;28;20195;-65
2021/05/24 00:47:13;;;;;;;7.32;6.65;;;11.00;1.00;;;;;;5054211;28;20649;-65
2021/05/24 00:49:38;;;;;;;5.90;5.40;;;11.20;1.00;;;;;;5054679;28;20192;-65
2021/05/24 00:52:04;;;;;;;6.67;5.37;;;11.10;1.00;;;;;;5036619;28;20185;-65
2021/05/24 00:54:30;;;;;;;7.53;5.80;;;11.10;1.00;;;;;;5053722;28;20180;-65
2021/05/24 00:56:58;;;;;;;7.78;5.35;;;11.00;1.00;;;;;;5054253;28;20423;-65
2021/05/24 00:59:25;;;;;;;7.30;5.72;;;10.90;1.00;;;;;;5054250;28;20173;-65
2021/05/24 01:01:51;;;;;;;7.00;6.18;;;10.90;2.10;;;;;;5053301;28;20617;-65
2021/05/24 01:04:18;;;;;;;6.00;5.40;;;10.90;13.90;;;;;;5054081;28;20185;-65
2021/05/24 01:06:44;;;;;;;6.60;5.82;;;10.90;21.10;;;;;;5054760;28;20181;-65
2021/05/24 01:09:10;;;;;;;6.33;5.73;;;10.90;27.40;;;;;;5054820;28;20191;-65
2021/05/24 01:11:36;;;;;;;7.53;6.80;;;11.00;22.70;;;;;;5056713;28;20980;-65
2021/05/24 01:14:02;;;;;;;7.30;6.25;;;11.10;16.80;;;;;;5057567;28;20621;-65
2021/05/24 01:16:27;;;;;;;6.20;5.70;;;11.10;1.00;;;;;;5058222;28;20172;-65
2021/05/24 01:18:53;;;;;;;6.77;6.00;;;10.90;1.00;;;;;;5057434;28;20565;-65
2021/05/24 01:21:21;;;;;;;7.17;6.47;;;11.00;1.00;;;;;;5059117;28;20235;-65
2021/05/24 01:23:49;;;;;;;7.10;6.00;;;10.90;1.00;;;;;;5058284;28;20181;-65
2021/05/24 01:26:16;;;;;;;7.68;6.30;;;10.90;12.60;;;;;;5058096;28;20234;-66
2021/05/24 01:28:41;;;;;;;6.78;6.05;;;10.80;29.00;;;;;;5041372;28;20212;-65
2021/05/24 01:31:08;;;;;;;6.40;5.80;;;10.80;45.10;;;;;;5059138;28;20199;-65
2021/05/24 01:33:35;;;;;;;7.75;7.05;;;10.80;57.60;;;;;;5055486;28;20185;-65
2021/05/24 01:36:03;;;;;;;7.22;6.10;;;10.80;60.60;;;;;;5036749;28;20181;-65
2021/05/24 01:38:31;;;;;;;7.13;6.38;;;10.70;44.90;;;;;;5054019;28;20177;-65
2021/05/24 01:40:57;;;;;;;7.07;6.47;;;10.60;57.20;;;;;;5053879;28;20179;-64
2021/05/24 01:43:26;;;;;;;6.50;5.90;;;10.50;92.10;;;;;;5053006;28;20587;-62
2021/05/24 01:45:56;;;;;;;9.63;6.75;;;10.50;99.90;;;;;;5053093;28;20177;-62
2021/05/24 01:48:22;;;;;;;5.88;5.28;;;10.40;99.90;;;;;;5053137;28;20262;-62
2021/05/24 01:50:47;;;;;;;6.13;5.53;;;10.30;99.90;;;;;;5053134;28;20172;-62
2021/05/24 01:53:13;;;;;;;8.83;6.63;;;10.20;99.90;;;;;;5052824;28;20271;-62
2021/05/24 01:55:39;;;;;;;7.07;6.33;;;10.20;99.90;;;;;;5052841;28;20520;-62
2021/05/24 01:58:06;;;;;;;7.70;6.15;;;10.30;99.90;;;;;;5052844;28;20177;-62
2021/05/24 02:00:32;;;;;;;6.90;6.30;;;10.30;99.90;;;;;;5052991;28;20187;-62
2021/05/24 02:02:58;;;;;;;6.72;5.50;;;10.20;99.90;;;;;;5052905;28;20267;-62
2021/05/24 02:05:26;;;;;;;7.63;5.80;;;10.10;99.90;;;;;;5052620;28;20593;-62
2021/05/24 02:07:52;;;;;;;6.75;6.05;;;10.10;99.90;;;;;;5052733;28;20239;-62
2021/05/24 02:10:25;;;;;;;6.10;5.60;;;10.00;99.90;;;;;;5052869;28;20187;-62
2021/05/24 02:12:51;;;;;;;6.03;5.53;;;10.10;99.90;;;;;;5052552;28;20605;-62
2021/05/24 02:15:22;;;;;;;6.75;6.15;;;10.10;99.90;;;;;;5052665;28;20252;-62
2021/05/24 02:17:48;;;;;;;6.70;6.10;;;10.00;99.90;;;;;;5052750;28;20215;-62
2021/05/24 02:20:22;;;;;;;7.00;5.10;;;9.90;99.90;;;;;;5052540;28;20539;-62
2021/05/24 02:22:48;;;;;;;6.25;5.65;;;10.00;99.90;;;;;;5052797;28;20191;-62
2021/05/24 02:25:14;;;;;;;6.80;5.87;;;10.10;99.90;;;;;;5052500;28;20644;-62
2021/05/24 02:27:40;;;;;;;6.40;5.30;;;10.20;99.90;;;;;;5052629;28;20227;-62
2021/05/24 02:30:07;;;;;;;6.90;5.10;;;10.30;99.90;;;;;;5052982;28;20289;-61
2021/05/24 02:32:33;;;;;;;6.97;4.93;;;10.30;99.90;;;;;;5052718;28;20606;-61
2021/05/24 02:34:59;;;;;;;5.10;4.70;;;10.30;99.90;;;;;;5051400;28;20187;-62
2021/05/24 02:37:25;;;;;;;6.47;5.75;;;10.40;99.90;;;;;;5052670;28;20184;-62
2021/05/24 02:39:51;;;;;;;8.90;5.80;;;10.40;97.00;;;;;;5052610;28;20241;-62
2021/05/24 02:42:17;;;;;;;5.55;5.05;;;10.30;99.50;;;;;;5052633;28;20616;-62
2021/05/24 02:44:43;;;;;;;6.37;5.40;;;10.30;99.90;;;;;;5052143;28;20258;-62
2021/05/24 02:47:09;;;;;;;6.10;5.30;;;10.40;99.90;;;;;;5035167;28;20501;-62
2021/05/24 02:49:37;;;;;;;5.73;5.13;;;10.40;99.90;;;;;;5052765;28;20419;-62
2021/05/24 02:52:04;;;;;;;6.65;5.15;;;10.40;85.10;;;;;;5052455;28;20275;-62
2021/05/24 02:54:30;;;;;;;5.57;5.07;;;10.50;90.30;;;;;;5052317;28;20189;-62
2021/05/24 02:56:56;;;;;;;7.50;5.27;;;10.40;62.30;;;;;;5052503;28;20187;-62
2021/05/24 02:59:22;;;;;;;6.32;4.45;;;10.30;69.20;;;;;;5052457;28;20567;-62
2021/05/24 03:01:48;;;;;;;5.23;4.47;;;10.30;84.40;;;;;;5052536;28;20673;-62
2021/05/24 03:04:15;;;;;;;5.20;4.70;;;10.40;60.20;;;;;;5052143;28;20229;-62
2021/05/24 03:06:40;;;;;;;5.55;5.05;;;10.50;38.90;;;;;;5052322;28;20516;-62
2021/05/24 03:09:06;;;;;;;5.57;4.97;;;10.70;20.20;;;;;;5052353;28;20209;-62
2021/05/24 03:11:32;;;;;;;6.60;5.90;;;10.70;1.00;;;;;;5050506;28;20188;-62
2021/05/24 03:13:58;;;;;;;6.68;5.93;;;10.70;1.00;;;;;;5051884;28;20185;-62
2021/05/24 03:16:24;;;;;;;7.53;5.57;;;10.70;1.00;;;;;;5052377;28;20203;-62
2021/05/24 03:18:50;;;;;;;8.40;6.07;;;10.70;1.00;;;;;;5052307;28;20616;-62
2021/05/24 03:21:15;;;;;;;7.73;6.27;;;10.70;1.00;;;;;;5052264;28;20245;-62
2021/05/24 03:23:41;;;;;;;6.90;5.40;;;10.70;1.00;;;;;;5052414;28;20180;-62
2021/05/24 03:26:06;;;;;;;7.80;6.03;;;10.60;1.00;;;;;;5054683;28;20173;-62
2021/05/24 03:28:32;;;;;;;7.80;5.60;;;10.80;1.00;;;;;;5055931;28;20557;-62
2021/05/24 03:30:58;;;;;;;7.20;5.80;;;10.70;1.00;;;;;;5055838;28;20259;-62
2021/05/24 03:33:23;;;;;;;5.63;5.00;;;10.70;1.00;;;;;;5055541;28;20559;-62
2021/05/24 03:35:49;;;;;;;6.57;5.53;;;10.80;1.00;;;;;;5055381;28;20169;-62
2021/05/24 03:38:15;;;;;;;6.15;5.65;;;10.70;1.00;;;;;;5055709;28;20229;-62
2021/05/24 03:40:40;;;;;;;5.27;4.77;;;10.80;1.00;;;;;;5055461;28;20189;-62
2021/05/24 03:43:06;;;;;;;5.77;5.27;;;10.90;1.00;;;;;;5055216;28;20195;-62
2021/05/24 03:45:34;;;;;;;6.73;5.53;;;10.90;1.00;;;;;;5055031;28;20208;-62
2021/05/24 03:48:00;;;;;;;6.25;5.70;;;10.70;1.00;;;;;;5055598;28;20302;-62
2021/05/24 03:50:26;;;;;;;7.17;4.97;;;10.80;1.00;;;;;;5055630;28;20575;-62
2021/05/24 03:52:52;;;;;;;6.00;5.37;;;10.80;1.00;;;;;;5055536;28;20611;-62
2021/05/24 03:55:18;;;;;;;5.63;5.13;;;10.70;1.00;;;;;;5037317;28;20185;-62
2021/05/24 03:57:46;;;;;;;7.17;5.30;;;10.70;1.00;;;;;;5055399;28;20200;-62
2021/05/24 04:00:14;;;;;;;5.80;5.05;;;10.70;1.00;;;;;;5055050;28;20262;-62
2021/05/24 04:02:39;;;;;;;6.80;4.88;;;10.70;1.00;;;;;;5055420;28;20199;-62
2021/05/24 04:05:14;;;;;;;4.87;4.40;;;10.70;1.00;;;;;;5054664;28;20177;-62
2021/05/24 04:07:42;;;;;;;5.57;4.70;;;10.90;1.00;;;;;;5055116;28;20458;-62
2021/05/24 04:10:08;;;;;;;5.03;4.63;;;11.10;1.00;;;;;;5054818;28;20169;-62
2021/05/24 04:12:33;;;;;;;5.63;5.13;;;11.00;1.00;;;;;;5055030;28;20169;-62
2021/05/24 04:14:59;;;;;;;5.70;4.97;;;10.80;1.00;;;;;;5054637;28;20510;-62
2021/05/24 04:17:29;;;;;;;5.60;4.50;;;11.00;1.00;;;;;;5054836;28;20679;-62
2021/05/24 04:19:55;;;;;;;5.00;4.50;;;11.10;1.00;;;;;;5055027;28;20180;-62
2021/05/24 04:22:23;;;;;;;6.30;5.10;;;11.40;1.00;;;;;;5054740;28;20253;-63
2021/05/24 04:24:51;;;;;;;6.28;4.55;;;11.50;1.00;;;;;;5054461;28;20550;-63
2021/05/24 04:27:17;;;;;;;5.97;4.78;;;11.60;99.90;;;;;;5054828;28;20208;-63
2021/05/24 04:29:43;;;;;;;7.80;4.30;;;11.50;99.90;;;;;;5054689;28;20660;-64
2021/05/24 04:32:08;;;;;;;4.40;4.00;;;11.50;99.90;;;;;;5054820;28;20177;-63
2021/05/24 04:34:34;;;;;;;7.73;4.97;;;11.50;99.90;;;;;;5054087;28;20666;-63
2021/05/24 04:37:01;;;;;;;5.97;4.13;;;11.60;99.90;;;;;;5054621;28;20169;-63
2021/05/24 04:39:27;;;;;;;5.78;4.25;;;11.80;99.90;;;;;;5054539;28;20248;-63
2021/05/24 04:41:52;;;;;;;4.37;3.97;;;12.20;99.90;;;;;;5036803;28;20177;-63
2021/05/24 04:44:19;;;;;;;4.13;3.73;;;13.70;99.90;;;;;;5054199;28;20184;-63
2021/05/24 04:46:46;;;;;;;5.93;4.18;;;15.00;94.00;;;;;;5036875;28;20271;-63
2021/05/24 04:49:13;;;;;;;3.78;3.30;;;15.90;1.00;;;;;;5054256;28;20305;-63
2021/05/24 04:51:38;;;;;;;3.42;3.13;;;16.90;99.90;;;;;;5054198;28;20519;-63
2021/05/24 04:54:05;;;;;;;4.20;3.60;;;17.90;1.20;;;;;;5053964;28;20173;-63
2021/05/24 04:56:31;;;;;;;3.30;3.00;;;17.70;1.00;;;;;;5054266;28;20181;-63
2021/05/24 04:58:57;;;;;;;3.43;2.80;;;18.10;1.00;;;;;;5054022;28;20434;-64
2021/05/24 05:01:22;;;;;;;3.27;2.97;;;18.50;1.00;;;;;;5054176;28;20423;-63
2021/05/24 05:03:48;;;;;;;3.07;2.87;;;19.30;1.00;;;;;;5053935;28;20208;-63
2021/05/24 05:06:14;;;;;;;2.60;2.40;;;19.80;1.00;;;;;;5053907;28;20606;-63
2021/05/24 05:08:39;;;;;;;3.40;2.90;;;20.40;1.00;;;;;;5053799;28;20613;-63
2021/05/24 05:11:05;;;;;;;3.03;2.70;;;20.20;1.00;;;;;;5053996;28;20181;-65
2021/05/24 05:13:30;;;;;;;4.10;2.77;;;21.40;1.00;;;;;;5053757;28;20183;-63
2021/05/24 05:15:56;;;;;;;3.20;2.40;;;21.60;1.00;;;;;;5052753;28;20177;-63
2021/05/24 05:18:21;;;;;;;4.23;2.30;;;22.80;1.00;;;;;;5053662;28;20271;-64
2021/05/24 05:20:47;;;;;;;2.90;2.20;;;22.10;1.00;;;;;;5053653;28;20505;-63
2021/05/24 05:23:13;;;;;;;3.80;2.30;;;19.90;1.00;;;;;;5053510;28;20180;-64
2021/05/24 05:25:38;;;;;;;3.00;2.50;;;17.80;1.00;;;;;;5053448;28;20173;-63
2021/05/24 05:28:04;;;;;;;3.20;2.70;;;16.60;99.90;;;;;;5053474;28;20214;-63
2021/05/24 05:30:29;;;;;;;3.27;2.67;;;16.10;99.90;;;;;;5053691;28;20264;-63
2021/05/24 05:32:55;;;;;;;3.07;2.27;;;15.30;1.00;;;;;;5053585;28;20180;-63
2021/05/24 05:35:21;;;;;;;4.73;2.23;;;15.10;99.90;;;;;;5053282;28;20189;-63
2021/05/24 05:37:49;;;;;;;3.27;2.30;;;15.20;99.90;;;;;;5053381;28;20242;-63
2021/05/24 05:40:17;;;;;;;3.22;2.90;;;15.20;99.90;;;;;;5053374;28;20268;-63
2021/05/24 05:42:45;;;;;;;3.83;2.10;;;15.00;1.00;;;;;;5053419;28;20183;-63
2021/05/24 05:45:12;;;;;;;2.45;2.25;;;14.80;99.90;;;;;;5052885;28;20192;-63
2021/05/24 05:47:38;;;;;;;2.40;1.98;;;14.70;99.90;;;;;;5053418;28;20250;-63
2021/05/24 05:50:05;;;;;;;3.90;2.40;;;14.90;86.80;;;;;;5053678;28;20270;-63
2021/05/24 05:52:31;;;;;;;2.92;1.48;;;15.00;1.00;;;;;;5053196;28;20188;-63
2021/05/24 05:54:56;;;;;;;2.97;1.70;;;15.50;1.00;;;;;;5052683;28;20559;-63
2021/05/24 05:57:22;;;;;;;2.53;1.70;;;16.40;99.90;;;;;;5053277;28;20487;-66
2021/05/24 05:59:47;;;;;;;2.43;1.53;;;18.10;1.00;;;;;;5052230;28;20180;-67
2021/05/24 06:02:13;;;;;;;3.40;2.07;;;20.30;1.00;;;;;;5053283;28;20177;-67
2021/05/24 06:04:39;;;;;;;4.07;2.13;;;21.50;1.00;;;;;;5053006;28;20180;-67
2021/05/24 06:07:05;;;;;;;2.33;1.40;;;22.70;1.00;;;;;;5053109;28;20275;-66
2021/05/24 06:09:30;;;;;;;4.77;1.50;;;22.50;1.00;;;;;;5052917;28;20267;-64
2021/05/24 06:11:56;;;;;;;3.00;1.33;;;22.30;1.00;;;;;;5053182;28;20423;-64
2021/05/24 06:14:22;;;;;;;2.17;1.37;;;20.60;1.00;;;;;;5052453;28;20560;-64
2021/05/24 06:16:48;;;;;;;4.50;1.63;;;19.20;1.00;;;;;;5053433;28;20181;-67
2021/05/24 06:19:14;;;;;;;1.83;1.33;;;19.10;1.00;;;;;;5052218;28;20424;-64
2021/05/24 06:21:39;;;;;;;2.27;1.13;;;19.50;1.00;;;;;;5053038;28;20177;-64
2021/05/24 06:24:05;;;;;;;2.03;1.30;;;19.90;1.00;;;;;;5052552;28;20438;-63
2021/05/24 06:26:31;;;;;;;1.77;1.40;;;20.40;1.00;;;;;;5053103;28;20184;-63
2021/05/24 06:28:57;;;;;;;6.23;1.30;;;20.50;1.00;;;;;;5035188;28;20459;-67
2021/05/24 06:31:22;;;;;;;3.00;1.57;;;20.70;1.00;;;;;;5052962;28;20252;-63
2021/05/24 06:33:48;;;;;;;3.00;1.33;;;21.10;1.00;;;;;;5052626;28;20207;-67
2021/05/24 06:36:13;;;;;;;2.23;1.30;;;21.20;1.00;;;;;;5052696;28;20179;-64
2021/05/24 06:38:39;;;;;;;3.20;1.33;;;21.10;1.00;;;;;;5052678;28;20187;-64
2021/05/24 06:41:04;;;;;;;2.67;1.20;;;20.70;1.00;;;;;;5052964;28;20173;-63
2021/05/24 06:43:30;;;;;;;1.70;1.60;;;20.80;1.00;;;;;;5052497;28;20521;-63
2021/05/24 06:45:55;;;;;;;2.87;1.10;;;20.40;1.00;;;;;;5052645;28;20185;-67
2021/05/24 06:48:21;;;;;;;1.60;1.10;;;20.60;1.00;;;;;;5035686;28;20211;-67
2021/05/24 06:50:49;;;;;;;1.90;0.87;;;20.70;1.00;;;;;;5052969;28;20234;-67
2021/05/24 06:53:14;;;;;;;1.40;1.20;;;21.60;1.00;;;;;;5034904;28;20185;-67
2021/05/24 06:55:40;;;;;;;1.77;1.10;;;21.40;1.00;;;;;;5052425;28;20719;-67
2021/05/24 06:58:06;;;;;;;2.00;1.37;;;21.20;1.00;;;;;;5053709;28;20610;-67
2021/05/24 07:00:31;;;;;;;3.67;1.20;;;22.50;1.00;;;;;;5055753;28;20179;-67
2021/05/24 07:02:57;;;;;;;2.00;1.03;;;22.30;1.00;;;;;;5056874;28;20173;-64
2021/05/24 07:05:22;;;;;;;1.87;1.40;;;22.30;1.00;;;;;;5056546;28;20173;-64
2021/05/24 07:07:48;;;;;;;2.00;1.20;;;22.00;1.00;;;;;;5056833;28;20230;-64
2021/05/24 07:10:14;;;;;;;2.00;1.50;;;22.20;1.00;;;;;;5056946;28;20226;-64
2021/05/24 07:12:40;;;;;;;1.80;1.20;;;23.30;1.00;;;;;;5057385;28;20227;-63
2021/05/24 07:15:06;;;;;;;1.73;1.10;;;23.50;1.00;;;;;;5056474;28;20911;-64
2021/05/24 07:17:33;;;;;;;3.60;1.50;;;23.60;1.00;;;;;;5057388;28;20292;-63
2021/05/24 07:19:59;;;;;;;2.00;1.37;;;23.70;1.00;;;;;;5059788;28;20427;-67
2021/05/24 07:22:24;;;;;;;2.80;1.20;;;22.80;1.00;;;;;;5061752;28;20423;-66
2021/05/24 07:24:53;;;;;;;1.57;1.20;;;22.70;1.00;;;;;;5058410;28;20188;-67
2021/05/24 07:27:19;;;;;;;1.93;1.57;;;22.40;1.00;;;;;;5057840;28;20272;-63
2021/05/24 07:29:44;;;;;;;1.97;1.63;;;21.20;1.00;;;;;;5058802;28;20463;-63
2021/05/24 07:32:11;;;;;;;1.67;1.00;;;20.40;1.00;;;;;;5057714;28;20485;-63
2021/05/24 07:34:40;;;;;;;2.00;1.07;;;19.50;1.00;;;;;;5058267;28;20173;-64
2021/05/24 07:37:07;;;;;;;3.30;2.10;;;19.40;1.00;;;;;;5057986;28;20446;-63
2021/05/24 07:39:33;;;;;;;1.43;1.10;;;18.70;1.00;;;;;;5057690;28;20856;-63
2021/05/24 07:42:01;;;;;;;1.90;1.20;;;18.40;6.90;;;;;;5058367;28;20427;-64
2021/05/24 07:44:28;;;;;;;1.00;0.80;;;18.30;9.20;;;;;;5057492;28;20895;-64
2021/05/24 07:46:55;;;;;;;2.43;0.87;;;18.70;1.60;;;;;;5058319;28;20498;-64
2021/05/24 07:49:21;;;;;;;1.97;1.10;;;19.50;1.00;;;;;;5059611;28;20473;-64
2021/05/24 07:51:48;;;;;;;1.27;0.83;;;20.30;1.00;;;;;;5062243;28;20411;-67
2021/05/24 07:54:14;;;;;;;1.60;1.00;;;20.70;1.00;;;;;;5066115;28;20420;-67
2021/05/24 07:56:39;;;;;;;4.90;1.20;;;20.00;1.00;;;;;;5064679;28;20427;-67
2021/05/24 07:59:05;;;;;;;1.97;1.10;;;19.40;1.00;;;;;;5063087;28;20181;-67
2021/05/24 08:01:31;;;;;;;1.50;0.93;;;18.70;1.00;;;;;;5066755;28;20181;-67
2021/05/24 08:03:56;;;;;;;3.93;1.87;;;18.50;1.00;;;;;;5066126;28;20177;-65
2021/05/24 08:06:22;;;;;;;1.60;1.03;;;18.60;1.00;;;;;;5059797;28;20235;-65
2021/05/24 08:08:48;;;;;;;1.10;0.90;;;18.80;1.00;;;;;;5056261;28;20531;-64
2021/05/24 08:11:15;;;;;;;1.27;1.00;;;19.00;1.00;;;;;;5069085;28;20177;-66
2021/05/24 08:13:41;;;;;;;1.50;1.10;;;19.20;1.00;;;;;;5076445;28;20268;-67
2021/05/24 08:16:08;;;;;;;1.73;1.10;;;19.20;1.00;;;;;;5075868;28;20422;-67
2021/05/24 08:18:33;;;;;;;1.23;0.87;;;19.50;1.00;;;;;;5075321;28;20454;-67
2021/05/24 08:20:59;;;;;;;2.70;1.07;;;19.20;1.00;;;;;;5075198;28;20426;-67
2021/05/24 08:23:25;;;;;;;4.30;1.30;;;19.10;1.00;;;;;;5074494;28;20504;-67
2021/05/24 08:25:51;;;;;;;3.03;1.20;;;18.90;1.00;;;;;;5074690;28;20176;-66
2021/05/24 08:28:17;;;;;;;1.20;0.90;;;18.90;1.00;;;;;;5074588;28;20207;-66
2021/05/24 08:30:43;;;;;;;1.27;1.17;;;19.00;1.00;;;;;;5056933;28;20426;-65
2021/05/24 08:33:08;;;;;;;1.50;0.80;;;18.90;1.00;;;;;;5074217;28;20457;-65
2021/05/24 08:35:34;;;;;;;1.20;0.87;;;19.00;1.00;;;;;;5074096;28;20410;-68
2021/05/24 08:38:00;;;;;;;1.77;1.07;;;19.30;1.00;;;;;;5074580;28;20177;-65
2021/05/24 08:40:26;;;;;;;3.30;1.07;;;19.50;1.00;;;;;;5074525;28;20188;-64
2021/05/24 08:42:55;;;;;;;2.33;1.13;;;19.60;1.00;;;;;;5074707;28;20172;-67
2021/05/24 08:45:20;;;;;;;2.10;1.03;;;19.50;1.00;;;;;;5073931;28;20533;-67
2021/05/24 08:47:48;;;;;;;3.03;1.10;;;19.70;1.00;;;;;;5056189;28;20529;-65
2021/05/24 08:50:14;;;;;;;2.90;1.00;;;19.60;1.00;;;;;;5074600;28;20648;-65
2021/05/24 08:52:41;;;;;;;2.00;0.83;;;19.80;1.00;;;;;;5074154;28;20506;-65
2021/05/24 08:55:09;;;;;;;2.43;1.30;;;19.70;1.00;;;;;;5073508;28;20259;-65
2021/05/24 08:57:41;;;;;;;1.90;1.00;;;19.50;1.00;;;;;;5073963;28;20430;-63
2021/05/24 09:00:10;;;;;;;2.20;1.07;;;19.50;1.00;;;;;;5056234;28;20431;-63
2021/05/24 09:02:40;;;;;;;1.40;0.80;;;19.50;1.00;;;;;;5073891;28;20421;-63
2021/05/24 09:05:09;;;;;;;2.60;1.20;;;19.70;1.00;;;;;;5073543;28;20947;-63
2021/05/24 09:07:57;;;;;;;2.10;0.87;;;19.70;1.00;;;;;;5073915;28;20450;-63
2021/05/24 09:10:35;;;;;;;1.30;0.93;;;19.80;1.00;;;;;;5056164;28;20482;-63
2021/05/24 09:13:11;;;;;;;1.97;1.10;;;19.90;1.00;;;;;;5073708;28;20426;-66
2021/05/24 09:15:39;;;;;;;3.13;1.23;;;19.90;1.00;;;;;;5073676;28;20422;-67
2021/05/24 09:18:07;;;;;;;3.27;1.20;;;19.80;1.00;;;;;;5073361;28;20474;-67
2021/05/24 09:20:52;;;;;;;3.17;1.00;;;20.00;1.00;;;;;;5073879;28;20454;-67
2021/05/24 09:23:29;;;;;;;2.13;0.90;;;20.50;1.00;;;;;;5073228;28;20427;-66
2021/05/24 09:25:56;;;;;;;1.50;0.90;;;20.40;1.00;;;;;;5073497;28;20436;-66
2021/05/24 09:28:46;;;;;;;1.50;0.80;;;20.50;1.00;;;;;;5074135;28;20851;-66
2021/05/24 09:31:14;;;;;;;4.13;1.07;;;20.70;1.00;;;;;;5074414;28;20422;-66
2021/05/24 09:33:57;;;;;;;1.50;0.90;;;20.50;1.00;;;;;;5075468;28;20716;-66
2021/05/24 09:36:24;;;;;;;2.33;1.07;;;20.20;1.00;;;;;;5075652;28;20422;-66
2021/05/24 09:38:52;;;;;;;2.80;1.03;;;20.10;1.00;;;;;;5075177;28;20431;-66
2021/05/24 09:41:21;;;;;;;1.67;1.03;;;20.00;1.00;;;;;;5074814;28;20919;-63
2021/05/24 09:43:49;;;;;;;2.53;1.00;;;20.30;1.00;;;;;;5074325;28;20921;-64
2021/05/24 09:46:20;;;;;;;2.00;0.70;;;20.30;1.00;;;;;;5074008;28;20418;-64
2021/05/24 09:48:55;;;;;;;1.17;0.80;;;20.20;1.00;;;;;;5075002;28;20545;-63
2021/05/24 09:51:25;;;;;;;3.27;1.50;;;20.40;1.00;;;;;;5075263;28;20481;-63
2021/05/24 09:54:06;;;;;;;2.13;0.77;;;20.80;1.00;;;;;;5074080;28;20431;-63
2021/05/24 09:56:37;;;;;;;4.20;1.27;;;21.40;1.00;;;;;;5074622;28;20419;-70
2021/05/24 09:59:13;;;;;;;3.77;1.53;;;21.40;1.00;;;;;;5074065;28;20434;-70
2021/05/24 10:01:49;;;;;;;1.20;0.70;;;21.50;1.00;;;;;;5073964;28;20436;-68
2021/05/24 10:04:21;;;;;;;0.80;0.63;;;21.40;1.00;;;;;;5055131;28;20469;-66
2021/05/24 10:06:48;;;;;;;1.37;1.00;;;21.80;1.00;;;;;;5073264;28;20764;-66
2021/05/24 10:09:17;;;;;;;1.60;0.80;;;22.10;1.00;;;;;;5073096;28;20533;-66
2021/05/24 10:11:45;;;;;;;1.83;1.20;;;22.50;1.00;;;;;;5072981;28;20426;-66
2021/05/24 10:14:13;;;;;;;2.00;0.53;;;22.60;1.00;;;;;;5072770;28;20441;-66
2021/05/24 10:16:47;;;;;;;2.17;0.90;;;22.50;1.00;;;;;;5072780;28;20815;-67
2021/05/24 10:19:14;;;;;;;2.00;0.60;;;22.70;1.00;;;;;;5073186;28;20426;-66
2021/05/24 10:21:40;;;;;;;2.20;1.13;;;22.20;1.00;;;;;;5072787;28;20491;-66
2021/05/24 10:24:06;;;;;;;1.33;0.60;;;21.60;1.00;;;;;;5072427;28;20828;-66
2021/05/24 10:26:33;;;;;;;1.00;0.60;;;21.70;1.00;;;;;;5073103;28;20747;-66
2021/05/24 10:29:01;;;;;;;1.40;0.70;;;21.30;1.00;;;;;;5072733;28;20786;-65
2021/05/24 10:31:29;;;;;;;1.57;0.90;;;21.20;1.00;;;;;;5072693;28;20426;-69
2021/05/24 10:34:07;;;;;;;1.93;1.10;;;21.50;1.00;;;;;;5073294;28;20938;-68
2021/05/24 10:36:33;;;;;;;1.50;0.80;;;21.70;1.00;;;;;;5076339;28;20418;-68
2021/05/24 10:39:22;;;;;;;1.40;0.70;;;21.80;1.00;;;;;;5076720;28;20437;-68
2021/05/24 10:41:58;;;;;;;2.80;1.00;;;21.90;1.00;;;;;;5058975;28;20241;-68
2021/05/24 10:44:38;;;;;;;1.43;0.90;;;22.10;1.00;;;;;;5076347;28;20422;-68
2021/05/24 10:47:26;;;;;;;3.20;1.47;;;22.20;1.00;;;;;;5076616;28;20476;-67
2021/05/24 10:50:05;;;;;;;1.77;0.60;;;22.80;1.00;;;;;;5076783;28;20437;-67
2021/05/24 10:52:36;;;;;;;1.03;0.70;;;22.60;1.00;;;;;;5078763;28;20425;-69
2021/05/24 10:55:30;;;;;;;1.73;0.87;;;22.30;1.00;;;;;;5059594;28;20758;-67
2021/05/24 10:58:05;;;;;;;1.43;0.83;;;22.30;1.00;;;;;;5076586;28;20437;-68
2021/05/24 11:00:51;;;;;;;4.57;1.00;;;22.30;1.00;;;;;;5076302;28;20426;-64
2021/05/24 11:03:17;;;;;;;1.20;0.80;;;22.10;1.00;;;;;;5075971;28;20475;-67
2021/05/24 11:05:47;;;;;;;1.63;0.70;;;22.10;1.00;;;;;;5075832;28;20459;-68
2021/05/24 11:08:25;;;;;;;1.90;0.50;;;22.30;1.00;;;;;;5076204;28;20469;-68
2021/05/24 11:10:51;;;;;;;1.47;0.60;;;22.20;1.00;;;;;;5058544;28;20785;-69
2021/05/24 11:13:17;;;;;;;5.30;0.70;;;22.40;1.00;;;;;;5058334;28;20536;-64
2021/05/24 11:15:47;;;;;;;1.07;0.60;;;22.10;1.00;;;;;;5076102;28;20176;-64
2021/05/24 11:18:21;;;;;;;1.67;0.60;;;21.90;1.00;;;;;;5075863;28;20607;-64
2021/05/24 11:20:58;;;;;;;1.53;0.63;;;21.90;1.00;;;;;;5076338;28;20780;-64
2021/05/24 11:26:30;;;;;;;0.87;0.63;;;22.10;1.00;;;;;;5076272;28;20845;-67
2021/05/24 11:29:12;;;;;;;1.67;0.83;;;22.40;1.00;;;;;;5075891;28;20469;-68
2021/05/24 11:31:39;;;;;;;2.50;0.70;;;22.00;1.00;;;;;;5075914;28;20744;-68
2021/05/24 11:34:06;;;;;;;2.57;0.87;;;22.30;1.00;;;;;;5075737;28;20452;-68
2021/05/24 11:36:40;;;;;;;1.67;0.67;;;22.20;1.00;;;;;;5076175;28;20430;-69
2021/05/24 11:39:30;;;;;;;0.83;0.47;;;22.10;1.00;;;;;;5075889;28;20433;-70
2021/05/24 11:41:55;;;;;;;1.37;0.77;;;22.30;1.00;;;;;;5075812;28;20532;-69
2021/05/24 11:44:33;;;;;;;1.50;0.90;;;22.10;1.00;;;;;;5075060;28;20462;-67
2021/05/24 11:47:00;;;;;;;1.97;0.70;;;22.30;1.00;;;;;;5057248;28;20580;-69
2021/05/24 11:49:34;;;;;;;1.63;0.60;;;22.20;1.00;;;;;;5075203;28;20886;-68
2021/05/24 11:52:01;;;;;;;1.57;0.70;;;21.60;1.00;;;;;;5075629;28;20426;-68
2021/05/24 11:54:26;;;;;;;1.00;0.70;;;21.30;1.00;;;;;;5074987;28;20517;-68
2021/05/24 11:56:56;;;;;;;0.80;0.50;;;21.60;1.00;;;;;;5074924;28;20509;-67
2021/05/24 11:59:24;;;;;;;2.93;1.23;;;21.90;1.00;;;;;;5075148;28;20188;-64
2021/05/24 12:01:52;;;;;;;1.43;0.70;;;22.30;1.00;;;;;;5075310;28;20438;-69
2021/05/24 12:04:40;;;;;;;1.27;0.60;;;22.80;1.00;;;;;;5074767;28;20759;-70
2021/05/24 12:07:12;;;;;;;1.27;0.80;;;22.50;1.00;;;;;;5056865;28;20426;-70
2021/05/24 12:09:44;;;;;;;1.13;0.67;;;22.20;1.00;;;;;;5075045;28;20479;-70
2021/05/24 12:12:22;;;;;;;1.97;1.00;;;22.20;1.00;;;;;;5074892;28;20415;-72
2021/05/24 12:14:50;;;;;;;1.43;0.83;;;22.20;1.00;;;;;;5074844;28;20470;-73
2021/05/24 12:17:20;;;;;;;0.93;0.70;;;21.90;1.00;;;;;;5055959;28;20473;-70
2021/05/24 12:19:48;;;;;;;1.60;0.70;;;21.70;1.00;;;;;;5056621;28;20453;-64
2021/05/24 12:22:15;;;;;;;1.00;0.87;;;21.60;1.00;;;;;;5074135;28;20457;-68
2021/05/24 12:24:44;;;;;;;1.00;0.70;;;22.00;1.00;;;;;;5074511;28;20638;-69
2021/05/24 12:27:11;;;;;;;2.10;0.90;;;22.50;1.00;;;;;;5057255;28;20891;-67
2021/05/24 12:29:59;;;;;;;1.27;0.70;;;22.50;1.00;;;;;;5075288;28;20445;-67
2021/05/24 12:32:32;;;;;;;2.27;0.73;;;22.20;1.00;;;;;;5074435;28;20435;-69
2021/05/24 12:35:03;;;;;;;1.20;0.70;;;21.90;1.00;;;;;;5065034;28;20435;-69
2021/05/24 12:37:29;;;;;;;1.60;0.70;;;21.90;1.00;;;;;;5073281;28;20433;-70
2021/05/24 12:39:55;;;;;;;0.87;0.73;;;22.10;1.00;;;;;;5074912;28;20500;-70
2021/05/24 12:42:21;;;;;;;2.40;0.90;;;22.10;1.00;;;;;;5069649;28;20614;-69
2021/05/24 12:44:47;;;;;;;1.60;0.70;;;22.10;1.00;;;;;;5053974;28;20485;-70
2021/05/24 12:47:21;;;;;;;1.37;1.07;;;22.00;1.00;;;;;;5037258;28;20518;-69
2021/05/24 12:49:48;;;;;;;1.30;0.80;;;22.40;1.00;;;;;;5054644;28;20423;-66
2021/05/24 12:52:16;;;;;;;1.03;0.63;;;22.50;1.00;;;;;;5070800;28;20430;-70
2021/05/24 12:54:47;;;;;;;2.13;0.97;;;22.40;1.00;;;;;;5074110;28;20430;-66
2021/05/24 12:57:15;;;;;;;1.47;0.80;;;22.40;1.00;;;;;;5073193;28;20427;-67
2021/05/24 12:59:51;;;;;;;1.80;0.87;;;22.40;1.00;;;;;;5074085;28;20785;-68
2021/05/24 13:02:28;;;;;;;1.63;0.80;;;22.30;1.00;;;;;;5074154;28;20444;-71